Time;durP1;ratioP1;P1;durP2;ratioP2;P2;SDS_P1;SDS_P2;PMS_P1;PMS_P2;Temp;Humidity;BMP_temperature;BMP_pressure;BME280_temperature;BME280_humidity;BME280_pressure;Samples;Min_cycle;Max_cycle;Signal;HPM_P1;HPM_P2
2024/02/27 00:00:47;;;;;;;6.70;6.10;;;19.20;54.70;;;;;;5054086;28;20484;-49
2024/02/27 00:03:12;;;;;;;7.57;6.05;;;19.20;54.70;;;;;;5052250;28;20055;-48
2024/02/27 00:05:38;;;;;;;8.85;5.78;;;19.20;54.60;;;;;;5054497;28;20032;-52
2024/02/27 00:08:04;;;;;;;7.00;6.07;;;19.20;54.60;;;;;;5058793;28;20691;-49
2024/02/27 00:10:29;;;;;;;6.45;5.82;;;19.20;54.80;;;;;;5052616;28;20037;-50
2024/02/27 00:12:54;;;;;;;8.05;6.25;;;19.20;54.60;;;;;;5059452;28;20016;-48
2024/02/27 00:15:20;;;;;;;7.60;6.10;;;19.20;54.60;;;;;;5056235;28;20050;-50
2024/02/27 00:17:45;;;;;;;7.55;6.47;;;19.20;54.70;;;;;;5055508;28;20033;-48
2024/02/27 00:20:11;;;;;;;6.80;6.10;;;19.20;54.50;;;;;;5057017;28;20515;-48
2024/02/27 00:22:37;;;;;;;7.28;6.57;;;19.20;54.60;;;;;;5053807;28;20504;-49
2024/02/27 00:25:03;;;;;;;8.05;6.32;;;19.20;54.70;;;;;;5050886;28;20102;-49
2024/02/27 00:27:28;;;;;;;6.38;5.78;;;19.20;54.70;;;;;;5055570;28;20033;-49
2024/02/27 00:29:54;;;;;;;6.03;5.43;;;19.20;54.70;;;;;;5054759;28;20036;-49
2024/02/27 00:32:19;;;;;;;6.50;5.88;;;19.20;54.60;;;;;;5041174;28;20032;-50
2024/02/27 00:34:45;;;;;;;6.95;6.25;;;19.20;54.50;;;;;;5051317;28;20037;-48
2024/02/27 00:37:10;;;;;;;7.10;6.32;;;19.20;54.60;;;;;;5055812;28;20117;-50
2024/02/27 00:39:36;;;;;;;6.28;5.68;;;19.20;54.60;;;;;;5056057;28;20036;-48
2024/02/27 00:42:03;;;;;;;6.70;6.05;;;19.20;54.60;;;;;;5058045;28;20112;-50
2024/02/27 00:44:29;;;;;;;7.97;5.68;;;19.20;54.50;;;;;;5051655;28;20033;-49
2024/02/27 00:46:54;;;;;;;6.63;5.93;;;19.20;54.60;;;;;;5054573;28;20048;-51
2024/02/27 00:49:19;;;;;;;7.47;6.00;;;19.20;54.50;;;;;;5056087;28;20025;-51
2024/02/27 00:51:45;;;;;;;6.18;5.57;;;19.20;54.60;;;;;;5059418;28;20058;-48
2024/02/27 00:54:11;;;;;;;6.57;5.82;;;19.20;54.70;;;;;;5050775;28;20032;-50
2024/02/27 00:56:36;;;;;;;5.93;5.35;;;19.20;54.60;;;;;;5058638;28;20035;-50
2024/02/27 00:59:02;;;;;;;7.90;5.95;;;19.20;54.40;;;;;;5051637;28;20032;-49
2024/02/27 01:01:27;;;;;;;6.72;6.03;;;19.20;54.60;;;;;;5058836;28;20245;-50
2024/02/27 01:03:53;;;;;;;6.57;5.82;;;19.20;54.60;;;;;;5055597;28;20510;-51
2024/02/27 01:06:18;;;;;;;7.35;5.78;;;19.20;54.60;;;;;;5052245;28;20025;-51
2024/02/27 01:08:44;;;;;;;7.07;6.47;;;19.20;54.40;;;;;;5054197;28;20033;-49
2024/02/27 01:11:09;;;;;;;6.95;6.03;;;19.20;54.70;;;;;;5058380;28;20025;-49
2024/02/27 01:13:35;;;;;;;6.55;5.65;;;19.20;54.60;;;;;;5055523;28;20115;-49
2024/02/27 01:16:00;;;;;;;6.00;5.40;;;19.20;54.50;;;;;;5059333;28;20078;-49
2024/02/27 01:18:26;;;;;;;7.05;5.97;;;19.20;54.60;;;;;;5054560;28;20025;-49
2024/02/27 01:20:51;;;;;;;7.22;6.50;;;19.20;54.50;;;;;;5056058;28;20025;-50
2024/02/27 01:23:17;;;;;;;6.88;6.22;;;19.20;54.50;;;;;;5032032;28;20740;-49
2024/02/27 01:25:42;;;;;;;7.72;5.90;;;19.20;54.50;;;;;;5056161;28;20508;-49
2024/02/27 01:28:08;;;;;;;7.10;6.40;;;19.20;54.60;;;;;;5033858;28;20029;-51
2024/02/27 01:30:33;;;;;;;7.13;5.90;;;19.20;54.50;;;;;;5057410;28;20370;-49
2024/02/27 01:32:59;;;;;;;8.38;6.35;;;19.20;54.60;;;;;;5050860;28;20037;-52
2024/02/27 01:35:24;;;;;;;6.20;5.60;;;19.20;54.70;;;;;;5057021;28;20028;-49
2024/02/27 01:37:50;;;;;;;7.00;6.30;;;19.20;54.50;;;;;;5053095;28;20104;-49
2024/02/27 01:40:15;;;;;;;6.72;6.10;;;19.20;54.60;;;;;;5056849;28;20040;-47
2024/02/27 01:42:44;;;;;;;8.27;6.20;;;19.20;54.50;;;;;;5051589;28;20981;-47
2024/02/27 01:45:18;;;;;;;7.18;6.05;;;19.20;54.40;;;;;;5059385;28;20032;-50
2024/02/27 01:47:44;;;;;;;6.47;5.88;;;19.20;54.30;;;;;;5051644;28;20100;-51
2024/02/27 01:50:10;;;;;;;6.30;5.70;;;19.20;54.40;;;;;;5056476;28;20114;-49
2024/02/27 01:52:36;;;;;;;6.20;5.60;;;19.20;54.50;;;;;;5050291;28;20032;-49
2024/02/27 01:55:02;;;;;;;6.30;5.70;;;19.20;54.40;;;;;;5062071;28;20025;-49
2024/02/27 01:57:28;;;;;;;6.55;5.95;;;19.20;54.40;;;;;;5050200;28;20029;-54
2024/02/27 01:59:54;;;;;;;6.72;5.68;;;19.20;54.50;;;;;;5053223;28;20564;-50
2024/02/27 02:02:20;;;;;;;5.95;5.35;;;19.20;54.50;;;;;;5047563;28;20035;-49
2024/02/27 02:04:46;;;;;;;7.20;6.45;;;19.20;54.80;;;;;;5055665;28;20040;-51
2024/02/27 02:07:12;;;;;;;5.85;5.25;;;19.20;54.50;;;;;;5043774;28;20021;-47
2024/02/27 02:09:38;;;;;;;6.85;5.85;;;19.20;54.50;;;;;;5037724;28;20486;-48
2024/02/27 02:12:04;;;;;;;6.53;5.85;;;19.20;54.40;;;;;;5049197;28;20103;-51
2024/02/27 02:14:30;;;;;;;7.05;6.32;;;19.20;54.30;;;;;;5051785;28;20029;-49
2024/02/27 02:16:56;;;;;;;7.95;5.88;;;19.20;54.40;;;;;;5047664;28;20082;-51
2024/02/27 02:19:21;;;;;;;7.00;6.28;;;19.20;54.40;;;;;;5053767;28;20047;-51
2024/02/27 02:21:52;;;;;;;6.95;6.00;;;19.20;54.30;;;;;;5049541;28;21151;-53
2024/02/27 02:24:20;;;;;;;6.10;5.45;;;19.20;54.30;;;;;;5051313;28;20029;-51
2024/02/27 02:26:46;;;;;;;6.70;6.10;;;19.20;54.40;;;;;;5052346;28;20029;-48
2024/02/27 02:29:12;;;;;;;6.45;5.68;;;19.20;54.30;;;;;;5056962;28;20458;-49
2024/02/27 02:31:37;;;;;;;6.38;5.78;;;19.20;54.40;;;;;;5051388;28;20032;-50
2024/02/27 02:34:03;;;;;;;6.93;6.22;;;19.20;54.40;;;;;;5054592;28;20036;-50
2024/02/27 02:36:28;;;;;;;7.22;6.53;;;19.20;54.40;;;;;;5050959;28;20490;-50
2024/02/27 02:38:53;;;;;;;6.25;5.65;;;19.20;54.30;;;;;;5058640;28;20029;-49
2024/02/27 02:41:19;;;;;;;7.63;6.40;;;19.20;54.60;;;;;;5037023;28;20531;-50
2024/02/27 02:43:44;;;;;;;6.50;5.85;;;19.20;54.60;;;;;;5057968;28;20031;-49
2024/02/27 02:46:10;;;;;;;7.20;6.20;;;19.20;54.50;;;;;;5056095;28;20588;-50
2024/02/27 02:51:58;;;;;;;6.43;5.82;;;19.20;54.50;;;;;;5048962;28;20074;-51
2024/02/27 02:54:23;;;;;;;6.60;5.38;;;19.20;54.50;;;;;;5053795;28;20024;-50
2024/02/27 02:56:49;;;;;;;7.45;6.30;;;19.20;54.60;;;;;;5054993;28;20086;-52
2024/02/27 02:59:14;;;;;;;6.10;5.47;;;19.20;54.50;;;;;;5052944;28;20032;-49
2024/02/27 03:01:40;;;;;;;7.05;6.20;;;19.20;54.40;;;;;;5037801;28;20029;-52
2024/02/27 03:04:05;;;;;;;7.72;5.75;;;19.20;54.60;;;;;;5031912;28;20041;-48
2024/02/27 03:06:31;;;;;;;6.40;5.80;;;19.20;54.70;;;;;;5032319;28;20056;-48
2024/02/27 03:08:56;;;;;;;5.88;5.28;;;19.20;54.70;;;;;;5033896;28;20029;-49
2024/02/27 03:11:22;;;;;;;7.25;5.50;;;19.20;54.60;;;;;;5036562;28;20036;-49
2024/02/27 03:13:47;;;;;;;6.43;5.50;;;19.20;54.50;;;;;;5044776;28;20028;-48
2024/02/27 03:16:14;;;;;;;6.93;6.22;;;19.20;54.50;;;;;;5048893;28;20395;-50
2024/02/27 03:18:40;;;;;;;6.57;5.97;;;19.20;54.60;;;;;;5044884;28;20452;-50
2024/02/27 03:21:05;;;;;;;7.25;5.97;;;19.20;54.50;;;;;;5027869;28;20025;-49
2024/02/27 03:23:31;;;;;;;6.90;6.20;;;19.10;54.40;;;;;;5046523;28;20112;-49
2024/02/27 03:25:56;;;;;;;7.15;5.57;;;19.20;54.60;;;;;;5047862;28;20052;-49
2024/02/27 03:28:22;;;;;;;6.22;5.63;;;19.10;54.60;;;;;;5048291;28;20090;-50
2024/02/27 03:30:47;;;;;;;6.63;6.00;;;19.10;55.20;;;;;;5052430;28;20542;-50
2024/02/27 03:33:13;;;;;;;9.85;6.32;;;19.10;54.60;;;;;;5050068;28;20029;-49
2024/02/27 03:35:39;;;;;;;7.65;6.40;;;19.00;54.90;;;;;;5053443;28;21380;-50
2024/02/27 03:38:05;;;;;;;7.88;6.82;;;19.00;54.80;;;;;;5045876;28;20028;-49
2024/02/27 03:40:30;;;;;;;9.20;6.68;;;19.00;54.90;;;;;;5051212;28;20437;-48
2024/02/27 03:42:56;;;;;;;7.63;6.03;;;19.00;54.90;;;;;;5052648;28;20067;-48
2024/02/27 03:45:21;;;;;;;7.47;6.60;;;18.90;54.90;;;;;;5043145;28;20037;-51
2024/02/27 03:47:47;;;;;;;6.60;5.82;;;18.90;55.00;;;;;;5037780;28;20033;-50
2024/02/27 03:50:12;;;;;;;7.88;6.50;;;18.90;55.00;;;;;;5054600;28;20568;-49
2024/02/27 03:52:38;;;;;;;6.72;6.05;;;18.90;55.00;;;;;;5052079;28;20028;-49
2024/02/27 03:55:04;;;;;;;7.93;7.13;;;18.90;54.90;;;;;;5054584;28;20067;-49
2024/02/27 03:57:29;;;;;;;7.72;6.78;;;18.90;55.00;;;;;;5054817;28;20112;-49
2024/02/27 03:59:55;;;;;;;7.78;6.97;;;18.90;55.00;;;;;;5054307;28;20111;-50
2024/02/27 04:02:20;;;;;;;9.73;6.72;;;18.80;55.00;;;;;;5028598;28;20037;-49
2024/02/27 04:04:46;;;;;;;7.63;5.95;;;18.90;55.00;;;;;;5044321;28;20435;-49
2024/02/27 04:07:11;;;;;;;7.93;7.05;;;18.80;55.00;;;;;;5036652;28;20029;-50
2024/02/27 04:09:37;;;;;;;8.88;7.30;;;18.80;54.90;;;;;;5047370;28;20052;-49
2024/02/27 04:12:02;;;;;;;7.75;6.93;;;18.90;55.00;;;;;;5048815;28;20032;-48
2024/02/27 04:14:28;;;;;;;8.23;6.78;;;18.80;55.00;;;;;;5047978;28;20584;-49
2024/02/27 04:16:53;;;;;;;7.72;6.88;;;18.80;55.00;;;;;;5045779;28;20033;-50
2024/02/27 04:19:19;;;;;;;9.57;7.75;;;18.80;54.90;;;;;;5050828;28;20052;-51
2024/02/27 04:21:44;;;;;;;8.57;7.68;;;18.90;55.00;;;;;;5045278;28;20035;-56
2024/02/27 04:24:10;;;;;;;8.70;7.80;;;18.80;55.00;;;;;;5029779;28;20187;-47
2024/02/27 04:26:35;;;;;;;11.60;8.27;;;18.80;54.90;;;;;;5049445;28;20653;-47
2024/02/27 04:29:01;;;;;;;8.75;7.60;;;18.80;54.90;;;;;;5053701;28;20029;-45
2024/02/27 04:31:26;;;;;;;10.15;8.45;;;18.80;54.90;;;;;;5051973;28;20375;-49
2024/02/27 04:33:52;;;;;;;8.55;7.68;;;18.80;54.90;;;;;;5055847;28;20547;-48
2024/02/27 04:36:19;;;;;;;9.88;8.20;;;18.80;55.00;;;;;;5056381;28;20043;-49
2024/02/27 04:38:45;;;;;;;8.55;7.72;;;18.80;55.00;;;;;;5054764;28;20130;-51
2024/02/27 04:41:10;;;;;;;10.32;7.97;;;18.80;55.00;;;;;;5052665;28;20055;-47
2024/02/27 04:43:36;;;;;;;10.40;8.15;;;18.80;55.00;;;;;;5055190;28;20037;-47
2024/02/27 04:46:01;;;;;;;9.23;8.10;;;18.80;55.00;;;;;;5054484;28;20038;-52
2024/02/27 04:48:26;;;;;;;10.77;9.05;;;18.80;55.00;;;;;;5056726;28;20032;-47
2024/02/27 04:50:52;;;;;;;9.30;8.15;;;18.80;55.00;;;;;;5055507;28;20052;-50
2024/02/27 04:53:17;;;;;;;9.45;8.18;;;18.80;54.90;;;;;;5055737;28;20090;-49
2024/02/27 04:55:43;;;;;;;11.35;8.95;;;18.90;54.90;;;;;;5058457;28;20032;-50
2024/02/27 04:58:09;;;;;;;9.45;8.45;;;18.90;54.90;;;;;;5053476;28;20027;-48
2024/02/27 05:00:34;;;;;;;10.75;9.65;;;18.90;54.90;;;;;;5056297;28;20111;-48
2024/02/27 05:03:00;;;;;;;10.60;8.35;;;18.90;55.00;;;;;;5054090;28;20028;-49
2024/02/27 05:05:25;;;;;;;10.38;8.93;;;18.90;54.80;;;;;;5054799;28;20029;-49
2024/02/27 05:07:51;;;;;;;10.90;8.80;;;18.90;54.90;;;;;;5053271;28;20364;-48
2024/02/27 05:10:16;;;;;;;9.27;8.05;;;18.90;55.00;;;;;;5054518;28;20206;-50
2024/02/27 05:12:42;;;;;;;11.60;9.65;;;18.90;55.10;;;;;;5055587;28;20104;-49
2024/02/27 05:15:07;;;;;;;10.35;8.93;;;18.90;54.90;;;;;;5051551;28;20121;-52
2024/02/27 05:17:33;;;;;;;12.40;9.95;;;19.00;54.90;;;;;;5052671;28;20037;-51
2024/02/27 05:19:58;;;;;;;13.90;9.05;;;18.90;54.90;;;;;;5056570;28;20032;-49
2024/02/27 05:22:24;;;;;;;10.90;9.13;;;18.90;55.20;;;;;;5055540;28;20114;-49
2024/02/27 05:24:49;;;;;;;10.52;9.38;;;18.80;55.20;;;;;;5050811;28;20035;-51
2024/02/27 05:27:17;;;;;;;12.45;9.55;;;18.80;55.30;;;;;;5055240;28;20449;-52
2024/02/27 05:29:43;;;;;;;12.10;9.65;;;18.80;55.40;;;;;;5057623;28;20390;-48
2024/02/27 05:32:09;;;;;;;10.60;9.40;;;18.90;55.20;;;;;;5051731;28;20025;-49
2024/02/27 05:34:35;;;;;;;10.82;9.57;;;18.90;55.20;;;;;;5060128;28;20036;-49
2024/02/27 05:37:00;;;;;;;14.02;9.68;;;18.90;55.40;;;;;;5051556;28;20055;-51
2024/02/27 05:39:26;;;;;;;13.27;10.13;;;18.90;55.40;;;;;;5058400;28;20537;-49
2024/02/27 05:41:51;;;;;;;11.25;9.90;;;18.90;55.20;;;;;;5052779;28;20406;-49
2024/02/27 05:44:17;;;;;;;14.68;10.13;;;18.90;55.30;;;;;;5056842;28;20039;-49
2024/02/27 05:46:42;;;;;;;13.63;9.50;;;18.90;55.40;;;;;;5054737;28;20034;-51
2024/02/27 05:49:08;;;;;;;12.05;9.77;;;18.90;55.40;;;;;;5054511;28;20040;-49
2024/02/27 05:51:33;;;;;;;13.13;10.25;;;18.90;55.40;;;;;;5054024;28;20032;-50
2024/02/27 05:53:59;;;;;;;13.38;9.70;;;18.90;55.40;;;;;;5052404;28;20024;-50
2024/02/27 05:56:24;;;;;;;13.40;10.93;;;18.90;55.30;;;;;;5054927;28;20647;-48
2024/02/27 05:58:50;;;;;;;12.55;9.93;;;19.00;55.30;;;;;;5052045;28;20504;-50
2024/02/27 06:01:17;;;;;;;14.65;10.57;;;19.00;55.40;;;;;;5041713;28;20116;-49
2024/02/27 06:03:42;;;;;;;14.95;10.57;;;18.90;55.50;;;;;;5052129;28;20086;-50
2024/02/27 06:06:08;;;;;;;14.35;10.82;;;18.90;55.30;;;;;;5050943;28;20028;-48
2024/02/27 06:08:34;;;;;;;17.40;11.18;;;18.90;56.00;;;;;;5055969;28;20032;-49
2024/02/27 06:11:00;;;;;;;20.55;11.27;;;18.90;55.30;;;;;;5051228;28;20068;-51
2024/02/27 06:13:26;;;;;;;14.27;10.02;;;18.90;55.30;;;;;;5056041;28;20047;-48
2024/02/27 06:15:51;;;;;;;14.10;10.70;;;18.90;55.30;;;;;;5042004;28;20478;-51
2024/02/27 06:18:17;;;;;;;15.38;11.07;;;18.90;55.20;;;;;;5054972;28;20024;-49
2024/02/27 06:23:27;;;;;;;16.85;11.23;;;18.90;55.20;;;;;;5051829;28;20087;-49
2024/02/27 06:25:54;;;;;;;14.00;10.23;;;18.90;55.10;;;;;;5048669;28;20041;-48
2024/02/27 06:28:20;;;;;;;14.07;10.65;;;18.90;55.10;;;;;;5055482;28;20031;-51
2024/02/27 06:30:46;;;;;;;20.20;11.90;;;18.90;55.20;;;;;;5057014;28;20032;-49
2024/02/27 06:33:12;;;;;;;15.15;10.70;;;18.90;55.00;;;;;;5055977;28;20035;-48
2024/02/27 06:35:37;;;;;;;14.02;10.93;;;18.90;55.10;;;;;;5051515;28;20492;-49
2024/02/27 06:38:04;;;;;;;16.42;11.45;;;19.00;55.20;;;;;;5054064;28;20025;-49
2024/02/27 06:40:29;;;;;;;13.32;11.52;;;19.00;55.20;;;;;;5053389;28;20031;-50
2024/02/27 06:42:55;;;;;;;15.40;11.30;;;19.00;55.20;;;;;;5053449;28;20103;-52
2024/02/27 06:45:21;;;;;;;16.73;11.77;;;19.00;55.20;;;;;;5050058;28;20375;-49
2024/02/27 06:47:47;;;;;;;16.27;12.23;;;19.00;55.20;;;;;;5053868;28;20056;-49
2024/02/27 06:50:16;;;;;;;15.77;11.25;;;19.00;55.20;;;;;;5053203;28;20486;-50
2024/02/27 06:52:42;;;;;;;16.23;11.15;;;19.10;55.10;;;;;;5057452;28;20052;-49
2024/02/27 06:55:07;;;;;;;16.98;11.43;;;19.10;55.00;;;;;;5053058;28;20040;-52
2024/02/27 06:57:33;;;;;;;13.75;11.50;;;19.10;55.00;;;;;;5053797;28;20139;-51
2024/02/27 06:59:59;;;;;;;18.95;12.48;;;19.20;55.00;;;;;;5049874;28;20037;-49
2024/02/27 07:02:24;;;;;;;15.13;11.07;;;19.20;55.00;;;;;;5023451;28;20519;-51
2024/02/27 07:04:50;;;;;;;17.83;12.10;;;19.20;55.60;;;;;;5042095;28;20052;-50
2024/02/27 07:07:16;;;;;;;13.95;10.70;;;19.20;54.90;;;;;;5053322;28;20601;-49
2024/02/27 07:09:41;;;;;;;14.18;11.32;;;19.20;54.90;;;;;;5051450;28;20053;-51
2024/02/27 07:12:08;;;;;;;17.35;11.30;;;19.20;54.90;;;;;;5054361;28;20052;-48
2024/02/27 07:14:38;;;;;;;14.63;10.77;;;19.20;54.90;;;;;;5047702;28;20048;-49
2024/02/27 07:17:04;;;;;;;14.38;10.85;;;19.20;54.90;;;;;;5049771;28;20790;-49
2024/02/27 07:19:29;;;;;;;16.48;11.80;;;19.20;54.90;;;;;;5051512;28;20028;-49
2024/02/27 07:21:55;;;;;;;15.30;10.68;;;19.20;54.90;;;;;;5053912;28;20025;-49
2024/02/27 07:24:20;;;;;;;15.07;11.20;;;19.10;54.80;;;;;;5054146;28;20047;-49
2024/02/27 07:26:46;;;;;;;15.15;11.23;;;19.20;54.90;;;;;;5056122;28;20494;-49
2024/02/27 07:29:13;;;;;;;13.63;11.45;;;19.10;55.00;;;;;;5054218;28;20112;-49
2024/02/27 07:31:39;;;;;;;13.75;10.80;;;19.10;55.00;;;;;;5055275;28;20455;-50
2024/02/27 07:34:04;;;;;;;15.60;12.00;;;19.10;55.10;;;;;;5052217;28;20025;-51
2024/02/27 07:36:30;;;;;;;15.68;10.68;;;19.10;55.20;;;;;;5043776;28;20103;-50
2024/02/27 07:38:56;;;;;;;15.68;11.80;;;19.00;55.20;;;;;;5048524;28;20402;-49
2024/02/27 07:41:21;;;;;;;17.00;12.48;;;19.00;55.10;;;;;;5043066;28;20044;-50
2024/02/27 07:43:47;;;;;;;18.60;11.70;;;19.00;55.40;;;;;;5050984;28;20091;-50
2024/02/27 07:46:15;;;;;;;17.40;11.88;;;19.00;56.00;;;;;;5044532;28;20111;-58
2024/02/27 07:48:43;;;;;;;17.05;11.95;;;19.10;55.90;;;;;;5051285;28;20037;-49
2024/02/27 07:51:29;;;;;;;18.50;11.02;;;19.10;56.00;;;;;;5049393;28;20049;-53
2024/02/27 07:53:54;;;;;;;17.60;11.63;;;19.00;56.00;;;;;;5043680;28;20082;-52
2024/02/27 07:56:20;;;;;;;15.50;10.95;;;19.00;56.30;;;;;;5052036;28;20033;-51
2024/02/27 07:58:45;;;;;;;17.30;10.55;;;19.00;56.20;;;;;;5045579;28;21750;-48
2024/02/27 08:01:11;;;;;;;16.98;10.95;;;19.00;56.20;;;;;;5053849;28;20087;-54
2024/02/27 08:03:36;;;;;;;15.63;11.25;;;19.00;56.10;;;;;;5055307;28;20060;-53
2024/02/27 08:06:03;;;;;;;17.23;11.60;;;19.00;56.10;;;;;;5049850;28;20063;-48
2024/02/27 08:08:28;;;;;;;18.15;12.88;;;19.00;56.20;;;;;;5049867;28;20029;-54
2024/02/27 08:10:55;;;;;;;14.65;11.20;;;19.00;56.30;;;;;;5052108;28;20040;-51
2024/02/27 08:13:21;;;;;;;16.95;10.40;;;18.90;56.30;;;;;;5049177;28;20072;-49
2024/02/27 08:15:47;;;;;;;18.00;11.60;;;18.90;56.40;;;;;;5053334;28;20494;-50
2024/02/27 08:18:12;;;;;;;15.77;11.40;;;18.90;56.40;;;;;;5053967;28;20787;-49
2024/02/27 08:20:38;;;;;;;14.70;9.93;;;18.90;56.50;;;;;;5049155;28;20128;-51
2024/02/27 08:23:03;;;;;;;14.88;10.95;;;18.80;56.50;;;;;;5048416;28;20044;-54
2024/02/27 08:25:29;;;;;;;19.45;10.65;;;18.80;56.60;;;;;;5050785;28;20483;-54
2024/02/27 08:27:54;;;;;;;18.05;11.00;;;18.80;56.40;;;;;;5046609;28;20038;-47
2024/02/27 08:30:20;;;;;;;14.82;10.85;;;18.80;56.50;;;;;;5050022;28;20028;-51
2024/02/27 08:32:45;;;;;;;16.17;11.43;;;18.80;56.50;;;;;;5055115;28;20082;-53
2024/02/27 08:35:11;;;;;;;17.23;10.35;;;18.80;56.40;;;;;;5032035;28;20036;-56
2024/02/27 08:37:36;;;;;;;15.88;10.60;;;18.80;56.40;;;;;;5050140;28;20041;-49
2024/02/27 08:40:02;;;;;;;16.85;11.30;;;18.80;56.40;;;;;;5050472;28;20032;-51
2024/02/27 08:42:28;;;;;;;14.50;11.13;;;18.80;56.30;;;;;;5050537;28;20032;-54
2024/02/27 08:44:54;;;;;;;14.27;10.88;;;18.80;56.30;;;;;;5045200;28;20426;-53
2024/02/27 08:47:19;;;;;;;16.83;11.20;;;18.80;56.20;;;;;;4993111;28;20070;-56
2024/02/27 08:49:45;;;;;;;12.85;10.60;;;18.80;56.20;;;;;;5046874;28;20522;-50
2024/02/27 08:52:10;;;;;;;14.45;10.82;;;18.80;56.20;;;;;;5051435;28;20039;-52
2024/02/27 08:54:36;;;;;;;17.02;11.05;;;18.80;56.10;;;;;;5047810;28;20530;-49
2024/02/27 08:57:03;;;;;;;14.70;10.55;;;18.80;56.20;;;;;;5047227;28;20039;-50
2024/02/27 08:59:29;;;;;;;18.80;11.70;;;18.90;56.30;;;;;;5048690;28;20078;-52
2024/02/27 09:01:54;;;;;;;14.27;10.60;;;18.90;56.20;;;;;;5054875;28;20498;-54
2024/02/27 09:04:20;;;;;;;14.98;10.10;;;18.90;56.20;;;;;;5048024;28;20398;-51
2024/02/27 09:06:45;;;;;;;16.08;10.65;;;18.90;56.10;;;;;;5029871;28;20064;-55
2024/02/27 09:09:11;;;;;;;14.40;10.60;;;19.00;56.20;;;;;;5041284;28;20112;-49
2024/02/27 09:11:37;;;;;;;14.02;10.45;;;19.00;56.10;;;;;;5044109;28;20085;-53
2024/02/27 09:14:02;;;;;;;12.23;10.15;;;19.00;56.00;;;;;;5045258;28;20048;-51
2024/02/27 09:16:28;;;;;;;14.60;10.05;;;19.00;56.00;;;;;;5044733;28;20058;-49
2024/02/27 09:18:53;;;;;;;14.70;10.38;;;19.00;56.50;;;;;;5026630;28;20410;-51
2024/02/27 09:21:19;;;;;;;12.73;9.73;;;19.00;55.80;;;;;;5048048;28;20037;-52
2024/02/27 09:23:44;;;;;;;15.48;9.98;;;19.10;55.70;;;;;;5045235;28;20494;-47
2024/02/27 09:26:10;;;;;;;12.48;8.98;;;19.10;55.70;;;;;;5049340;28;20095;-47
2024/02/27 09:28:35;;;;;;;14.82;9.68;;;19.20;55.50;;;;;;5048179;28;20394;-50
2024/02/27 09:31:02;;;;;;;12.45;9.38;;;19.20;55.40;;;;;;5047000;28;20433;-51
2024/02/27 09:33:28;;;;;;;13.00;9.52;;;19.20;55.40;;;;;;5047059;28;20053;-50
2024/02/27 09:35:54;;;;;;;12.32;9.15;;;19.30;55.30;;;;;;5044748;28;20032;-50
2024/02/27 09:38:19;;;;;;;26.98;10.98;;;19.30;55.20;;;;;;5054001;28;20029;-49
2024/02/27 09:40:45;;;;;;;13.07;9.32;;;19.30;55.00;;;;;;5038460;28;20040;-52
2024/02/27 09:43:29;;;;;;;14.98;10.00;;;19.40;55.00;;;;;;5048822;28;20029;-50
2024/02/27 09:45:59;;;;;;;10.57;8.68;;;19.40;55.00;;;;;;5046313;28;20052;-48
2024/02/27 09:48:28;;;;;;;15.13;10.02;;;19.40;54.90;;;;;;5053619;28;20766;-47
2024/02/27 09:50:55;;;;;;;14.02;8.93;;;19.50;54.90;;;;;;5049538;28;20033;-53
2024/02/27 09:53:21;;;;;;;12.15;9.30;;;19.50;54.80;;;;;;5052549;28;20033;-47
2024/02/27 09:55:47;;;;;;;13.52;8.93;;;19.50;54.70;;;;;;5045042;28;20083;-49
2024/02/27 09:58:12;;;;;;;12.48;9.10;;;19.60;54.70;;;;;;5051689;28;20041;-50
2024/02/27 10:00:38;;;;;;;12.68;9.15;;;19.50;54.60;;;;;;5052032;28;20033;-54
2024/02/27 10:03:04;;;;;;;11.10;8.40;;;19.60;54.60;;;;;;5048641;28;20116;-54
2024/02/27 10:05:32;;;;;;;13.07;9.40;;;19.50;54.60;;;;;;5043771;28;20043;-49
2024/02/27 10:08:01;;;;;;;11.02;8.07;;;19.50;54.50;;;;;;5050949;28;20221;-50
2024/02/27 10:10:28;;;;;;;11.48;8.45;;;19.50;54.50;;;;;;5047858;28;20033;-48
2024/02/27 10:12:53;;;;;;;11.60;9.10;;;19.50;54.60;;;;;;5049477;28;20056;-49
2024/02/27 10:15:19;;;;;;;12.68;8.52;;;19.50;54.60;;;;;;5044506;28;20056;-50
2024/02/27 10:17:45;;;;;;;10.15;7.97;;;19.50;54.60;;;;;;5049370;28;20040;-50
2024/02/27 10:20:11;;;;;;;12.55;8.90;;;19.50;54.70;;;;;;5051368;28;20021;-49
2024/02/27 10:22:40;;;;;;;10.75;8.20;;;19.50;54.80;;;;;;5050810;28;20083;-49
2024/02/27 10:25:16;;;;;;;13.20;8.50;;;19.50;54.90;;;;;;5041940;28;20041;-49
2024/02/27 10:27:42;;;;;;;12.70;7.60;;;19.40;54.90;;;;;;5046312;28;20775;-49
2024/02/27 10:30:11;;;;;;;11.00;7.82;;;19.40;55.00;;;;;;5058360;22;20048;-47
2024/02/27 10:32:40;;;;;;;13.30;8.15;;;19.40;55.00;;;;;;5049334;28;20032;-48
2024/02/27 10:35:06;;;;;;;10.80;8.10;;;19.40;55.00;;;;;;5049305;28;20115;-50
2024/02/27 10:37:32;;;;;;;14.00;8.25;;;19.40;55.00;;;;;;5047002;28;20044;-53
2024/02/27 10:40:02;;;;;;;11.73;8.73;;;19.40;55.00;;;;;;5051295;28;20025;-49
2024/02/27 10:42:28;;;;;;;14.77;7.63;;;19.40;55.10;;;;;;5048791;28;20043;-48
2024/02/27 10:44:55;;;;;;;13.27;8.48;;;19.40;55.20;;;;;;5047157;28;20660;-48
2024/02/27 10:47:24;;;;;;;13.15;8.75;;;19.40;55.20;;;;;;5048385;28;20037;-50
2024/02/27 10:49:49;;;;;;;11.95;8.23;;;19.40;55.20;;;;;;5044246;28;20064;-50
2024/02/27 10:52:17;;;;;;;14.60;9.35;;;19.40;55.30;;;;;;5049862;28;20024;-53
2024/02/27 10:54:47;;;;;;;16.30;8.80;;;19.30;55.20;;;;;;5044326;28;20123;-54
2024/02/27 10:57:14;;;;;;;14.65;9.20;;;19.30;55.30;;;;;;5048456;28;20021;-51
2024/02/27 10:59:39;;;;;;;13.88;8.40;;;19.30;55.30;;;;;;5048361;28;20136;-53
2024/02/27 11:02:15;;;;;;;12.00;7.93;;;19.30;55.30;;;;;;5044244;28;21252;-53
2024/02/27 11:04:43;;;;;;;15.57;8.52;;;19.30;55.30;;;;;;5027842;28;20040;-52
2024/02/27 11:07:11;;;;;;;13.88;8.68;;;19.30;55.30;;;;;;5041734;28;20038;-48
2024/02/27 11:09:36;;;;;;;11.68;8.00;;;19.30;55.30;;;;;;5046699;28;20037;-51
2024/02/27 11:12:03;;;;;;;12.23;7.72;;;19.30;55.30;;;;;;5042702;28;20040;-46
2024/02/27 11:14:32;;;;;;;10.38;7.38;;;19.30;55.30;;;;;;5045997;28;20594;-51
2024/02/27 11:17:09;;;;;;;12.60;7.90;;;19.30;55.30;;;;;;5045714;28;20037;-48
2024/02/27 11:19:39;;;;;;;11.10;7.82;;;19.20;55.30;;;;;;5045936;28;20025;-50
2024/02/27 11:22:05;;;;;;;13.15;7.95;;;19.20;55.30;;;;;;5047858;28;20025;-49
2024/02/27 11:24:30;;;;;;;11.70;7.65;;;19.20;55.30;;;;;;5047042;28;20039;-48
2024/02/27 11:26:56;;;;;;;12.05;7.38;;;19.20;55.30;;;;;;5044380;28;20124;-48
2024/02/27 11:29:22;;;;;;;11.43;7.28;;;19.20;55.30;;;;;;5043339;28;20021;-54
2024/02/27 11:31:49;;;;;;;11.27;7.45;;;19.20;55.30;;;;;;5051923;28;20112;-54
2024/02/27 11:34:23;;;;;;;11.38;7.35;;;19.20;55.30;;;;;;5050737;28;20043;-47
2024/02/27 11:37:08;;;;;;;13.30;7.75;;;19.20;55.30;;;;;;5045888;28;20051;-47
2024/02/27 11:39:34;;;;;;;13.02;7.38;;;19.20;55.30;;;;;;5055891;28;20040;-54
2024/02/27 11:42:01;;;;;;;11.63;6.90;;;19.20;55.20;;;;;;5053496;28;20146;-48
2024/02/27 11:44:26;;;;;;;9.52;6.85;;;19.20;55.20;;;;;;5056096;28;20529;-46
2024/02/27 11:46:54;;;;;;;12.10;7.85;;;19.20;55.20;;;;;;5046805;28;20028;-51
2024/02/27 11:49:39;;;;;;;11.93;7.90;;;19.20;55.20;;;;;;5052502;28;20021;-46
2024/02/27 11:52:07;;;;;;;8.75;6.13;;;19.20;55.10;;;;;;5049722;28;20391;-49
2024/02/27 11:54:34;;;;;;;9.07;6.18;;;19.20;55.20;;;;;;5053463;28;20115;-49
2024/02/27 11:57:00;;;;;;;10.80;7.47;;;19.20;55.20;;;;;;5048034;28;20375;-50
2024/02/27 11:59:30;;;;;;;10.43;7.00;;;19.20;55.20;;;;;;5051194;28;20490;-48
2024/02/27 12:02:04;;;;;;;10.00;6.45;;;19.20;55.20;;;;;;5047531;28;20044;-50
2024/02/27 12:04:30;;;;;;;10.35;7.20;;;19.20;55.10;;;;;;5050917;28;20111;-53
2024/02/27 12:06:55;;;;;;;10.15;7.13;;;19.20;55.20;;;;;;5052231;28;20144;-47
2024/02/27 12:09:24;;;;;;;11.60;6.93;;;19.20;55.20;;;;;;5057524;28;20551;-51
2024/02/27 12:11:50;;;;;;;13.32;7.60;;;19.20;55.20;;;;;;5051676;28;20032;-47
2024/02/27 12:14:17;;;;;;;10.50;7.07;;;19.20;55.20;;;;;;5058759;28;20509;-47
2024/02/27 12:16:43;;;;;;;10.77;7.65;;;19.20;55.30;;;;;;5046772;28;20032;-49
2024/02/27 12:19:08;;;;;;;9.50;6.95;;;19.20;55.30;;;;;;5052938;28;20029;-55
2024/02/27 12:21:34;;;;;;;9.18;6.63;;;19.10;55.30;;;;;;5050788;28;20055;-52
2024/02/27 12:24:12;;;;;;;9.77;6.80;;;19.20;55.30;;;;;;5052071;28;20037;-51
2024/02/27 12:26:38;;;;;;;10.18;6.93;;;19.20;55.30;;;;;;5046155;28;20529;-47
2024/02/27 12:29:04;;;;;;;8.10;6.38;;;19.10;55.20;;;;;;5047633;28;20083;-53
2024/02/27 12:31:33;;;;;;;9.57;6.40;;;19.10;55.30;;;;;;5049570;28;20039;-50
2024/02/27 12:34:02;;;;;;;9.02;6.57;;;19.20;55.30;;;;;;5050604;28;20107;-54
2024/02/27 12:36:28;;;;;;;9.82;6.85;;;19.10;55.30;;;;;;5052742;28;20029;-48
2024/02/27 12:38:54;;;;;;;9.20;6.40;;;19.20;55.30;;;;;;5050107;28;20035;-52